createdAt,value
2022-10-23T00:29:37.909Z,0
2022-10-23T00:30:18.379Z,0
2022-10-23T00:31:00.003Z,0
2022-10-23T00:31:40.243Z,0
2022-10-23T00:32:20.835Z,0
2022-10-23T00:33:01.386Z,0
2022-10-23T00:33:42.020Z,0
2022-10-23T00:40:28.222Z,0
2022-10-23T00:41:08.742Z,0
2022-10-23T00:45:19.231Z,0
2022-10-23T00:45:59.650Z,0
2022-10-23T00:46:40.131Z,0
2022-10-23T00:51:23.967Z,0
2022-10-23T00:52:04.715Z,0
2022-10-23T00:52:45.350Z,0
2022-10-23T00:53:25.754Z,0
2022-10-23T00:54:23.274Z,0
2022-10-23T00:54:46.633Z,0
2022-10-23T00:55:27.150Z,0
2022-10-23T00:56:07.631Z,0
2022-10-23T00:56:48.070Z,0
2022-10-23T01:04:53.876Z,0
2022-10-23T01:05:34.417Z,0
2022-10-23T01:06:15.014Z,0
2022-10-23T01:06:55.475Z,0
2022-10-23T01:07:35.952Z,0
2022-10-23T01:08:16.485Z,0
2022-10-23T01:08:56.926Z,0
2022-10-23T01:09:37.429Z,0
2022-10-23T01:10:17.840Z,0
2022-10-23T01:10:58.308Z,0
2022-10-23T01:11:38.804Z,0
2022-10-23T01:17:44.623Z,0
2022-10-23T01:18:24.662Z,0
2022-10-23T01:19:05.103Z,0
2022-10-23T01:19:45.998Z,0
2022-10-23T01:20:26.708Z,0
2022-10-23T01:21:07.027Z,0
2022-10-23T01:21:48.051Z,0
2022-10-23T01:22:28.562Z,0
2022-10-23T01:27:54.236Z,0
2022-10-23T01:28:35.365Z,0
2022-10-23T01:29:16.121Z,0
2022-10-23T01:30:37.453Z,0
2022-10-23T01:31:17.990Z,0
2022-10-23T01:31:58.917Z,0
2022-10-23T01:38:43.877Z,0
2022-10-23T01:39:24.384Z,0
2022-10-23T01:40:04.971Z,0
2022-10-23T01:40:45.402Z,0
2022-10-23T01:41:25.868Z,0
2022-10-23T01:42:06.343Z,0
2022-10-23T01:42:46.871Z,0
2022-10-23T01:43:27.348Z,0
2022-10-23T01:44:07.851Z,0
2022-10-23T01:44:48.308Z,0
2022-10-23T01:45:28.787Z,0
2022-10-23T01:49:23.050Z,0
2022-10-23T01:50:03.504Z,0
2022-10-23T01:50:43.978Z,0
2022-10-23T01:56:07.828Z,0
2022-10-23T01:56:48.339Z,0
2022-10-23T01:57:28.847Z,0
2022-10-23T01:58:09.323Z,0
2022-10-23T01:58:49.764Z,0
2022-10-23T01:59:30.238Z,0
2022-10-23T02:00:10.755Z,0
2022-10-23T02:00:51.202Z,0
2022-10-23T02:01:31.815Z,0
2022-10-23T02:02:12.445Z,0
2022-10-23T02:09:37.670Z,0
2022-10-23T02:10:18.136Z,0
2022-10-23T02:10:58.586Z,0
2022-10-23T02:11:39.195Z,0
2022-10-23T02:12:19.648Z,0
2022-10-23T02:13:00.192Z,0
2022-10-23T02:13:40.637Z,0
2022-10-23T02:14:21.158Z,0
2022-10-23T02:15:01.579Z,0
2022-10-23T02:15:42.072Z,0
2022-10-23T02:23:49.555Z,0
2022-10-23T02:24:28.341Z,0
2022-10-23T02:25:08.819Z,0
2022-10-23T02:25:49.296Z,0
2022-10-23T02:26:29.773Z,0
2022-10-23T02:27:10.263Z,0
2022-10-23T02:27:50.762Z,0
2022-10-23T02:28:31.251Z,0
2022-10-23T02:29:11.723Z,0
2022-10-23T02:29:52.232Z,0
2022-10-23T02:37:17.659Z,0
2022-10-23T02:37:58.121Z,0
2022-10-23T02:38:38.672Z,0
2022-10-23T02:39:19.076Z,0
2022-10-23T02:39:59.564Z,0
2022-10-23T02:40:40.055Z,0
2022-10-23T02:41:20.515Z,0
2022-10-23T02:42:01.049Z,0
2022-10-23T02:42:41.533Z,0
2022-10-23T02:43:22.054Z,0
2022-10-23T02:44:02.552Z,0
2022-10-23T02:50:47.606Z,0
2022-10-23T02:51:28.088Z,0
2022-10-23T02:52:08.511Z,0
2022-10-23T02:52:49.003Z,0
2022-10-23T02:53:29.558Z,0
2022-10-23T02:54:10.030Z,0
2022-10-23T02:54:50.516Z,0
2022-10-23T02:55:31.029Z,0
2022-10-23T02:56:11.528Z,0
2022-10-23T03:00:57.861Z,0
2022-10-23T03:01:38.605Z,0
2022-10-23T03:02:18.949Z,0
2022-10-23T03:02:59.283Z,0
2022-10-23T03:03:39.768Z,0
2022-10-23T03:04:20.291Z,0
2022-10-23T03:05:01.571Z,0
2022-10-23T03:05:42.050Z,0
2022-10-23T03:06:22.499Z,0
2022-10-23T03:13:47.805Z,0
2022-10-23T03:14:28.306Z,0
2022-10-23T03:15:08.811Z,0
2022-10-23T03:15:49.339Z,0
2022-10-23T03:16:29.774Z,0
2022-10-23T03:17:10.321Z,0
2022-10-23T03:17:50.796Z,0
2022-10-23T03:18:31.273Z,0
2022-10-23T03:19:52.275Z,0
2022-10-23T03:27:17.560Z,0
2022-10-23T03:27:58.020Z,0
2022-10-23T03:31:37.086Z,0
2022-10-23T03:32:17.606Z,0
2022-10-23T03:32:58.097Z,0
2022-10-23T03:38:22.035Z,0
2022-10-23T03:39:02.518Z,0
2022-10-23T03:39:43.003Z,0
2022-10-23T03:40:23.447Z,0
2022-10-23T03:41:03.978Z,0
2022-10-23T03:41:44.437Z,0
2022-10-23T03:42:24.941Z,0
2022-10-23T03:43:05.432Z,0
2022-10-23T03:43:45.904Z,0
2022-10-23T03:44:26.440Z,0
2022-10-23T03:51:51.767Z,0
2022-10-23T03:52:32.277Z,0
2022-10-23T03:53:12.880Z,0
2022-10-23T03:53:53.279Z,0
2022-10-23T03:54:33.772Z,0
2022-10-23T03:55:14.288Z,0
2022-10-23T03:55:54.779Z,0
2022-10-23T03:56:35.249Z,0
2022-10-23T03:57:15.721Z,0
2022-10-23T03:57:56.177Z,0
2022-10-23T03:58:36.674Z,0
2022-10-23T04:06:01.986Z,0
2022-10-23T04:06:42.467Z,0
2022-10-23T04:07:22.986Z,0
2022-10-23T04:08:03.421Z,0
2022-10-23T04:08:43.987Z,0
2022-10-23T04:09:24.461Z,0
2022-10-23T04:10:04.891Z,0
2022-10-23T04:10:45.379Z,0
2022-10-23T04:11:25.928Z,0
2022-10-23T04:12:06.349Z,0
2022-10-23T04:19:31.765Z,0
2022-10-23T04:20:12.244Z,0
2022-10-23T04:20:52.752Z,0
2022-10-23T04:21:33.148Z,0
2022-10-23T04:22:13.609Z,0
2022-10-23T04:22:54.187Z,0
2022-10-23T04:23:34.715Z,0
2022-10-23T04:24:15.262Z,0
2022-10-23T04:25:36.262Z,0
2022-10-23T04:26:16.706Z,0
2022-10-23T04:32:52.966Z,0
2022-10-23T04:33:33.414Z,0
2022-10-23T04:34:13.877Z,0
2022-10-23T04:39:37.879Z,0
2022-10-23T04:40:18.401Z,0
2022-10-23T04:40:58.855Z,0
2022-10-23T04:41:39.383Z,0
2022-10-23T04:43:00.359Z,0
2022-10-23T04:43:40.919Z,0
2022-10-23T04:44:21.384Z,0
2022-10-23T04:45:01.861Z,0
2022-10-23T04:45:42.382Z,0
2022-10-23T04:53:07.828Z,0
2022-10-23T04:53:48.298Z,0
2022-10-23T04:57:27.367Z,0
2022-10-23T04:58:07.886Z,0
2022-10-23T04:58:48.414Z,0
2022-10-23T05:04:12.262Z,0
2022-10-23T05:04:52.773Z,0
2022-10-23T05:05:33.273Z,0
2022-10-23T05:06:13.806Z,0
2022-10-23T05:06:54.345Z,0
2022-10-23T05:07:34.875Z,0
2022-10-23T05:08:17.074Z,0
2022-10-23T05:08:55.853Z,0
2022-10-23T05:09:36.315Z,0
2022-10-23T05:17:02.211Z,0
2022-10-23T05:17:43.027Z,0
2022-10-23T05:18:23.208Z,0
2022-10-23T05:19:03.655Z,0
2022-10-23T05:19:44.124Z,0
2022-10-23T05:20:24.655Z,0
2022-10-23T05:21:05.152Z,0
2022-10-23T05:21:45.629Z,0
2022-10-23T05:22:26.150Z,0
2022-10-23T05:23:06.572Z,0
2022-10-23T05:31:12.314Z,0
2022-10-23T05:31:52.830Z,0
2022-10-23T05:32:33.282Z,0
2022-10-23T05:33:13.765Z,0
2022-10-23T05:33:54.257Z,0
2022-10-23T05:34:34.723Z,0
2022-10-23T05:35:15.158Z,0
2022-10-23T05:35:55.652Z,0
2022-10-23T05:36:36.166Z,0
2022-10-23T05:37:16.756Z,0
2022-10-23T05:45:22.350Z,0
2022-10-23T05:46:02.858Z,0
2022-10-23T05:46:43.325Z,0
2022-10-23T05:47:23.839Z,0
2022-10-23T05:48:10.555Z,0
2022-10-23T05:48:44.782Z,0
2022-10-23T05:49:25.267Z,0
2022-10-23T05:50:05.717Z,0
2022-10-23T05:50:46.275Z,0
2022-10-23T05:51:26.676Z,0
2022-10-23T06:31:42.977Z,15
2022-10-23T06:32:23.423Z,15
2022-10-23T06:33:04.670Z,15
2022-10-23T06:36:27.693Z,10
2022-10-23T06:37:08.361Z,15
2022-10-23T06:37:49.200Z,15
2022-10-23T06:38:29.587Z,15
2022-10-23T06:39:10.073Z,15
2022-10-23T06:39:50.590Z,15
2022-10-23T06:40:31.079Z,15
2022-10-23T06:41:11.515Z,15
2022-10-23T06:41:52.188Z,15
2022-10-23T06:48:37.828Z,10
2022-10-23T06:49:18.362Z,10
2022-10-23T06:49:58.964Z,10
2022-10-23T06:50:39.262Z,10
2022-10-23T06:51:19.735Z,10
2022-10-23T06:52:00.252Z,10
2022-10-23T06:52:46.808Z,10
2022-10-23T06:53:21.308Z,10
2022-10-23T06:54:01.815Z,15
2022-10-23T06:54:42.318Z,10
2022-10-23T07:02:08.436Z,10
2022-10-23T07:02:48.812Z,10
2022-10-23T07:03:29.260Z,10
2022-10-23T07:04:09.898Z,10
2022-10-23T07:04:52.977Z,10
2022-10-23T07:08:57.842Z,10
2022-10-23T07:09:38.351Z,10
2022-10-23T07:10:18.979Z,10
2022-10-23T07:10:59.424Z,15
2022-10-23T07:11:39.944Z,15
2022-10-23T07:12:20.429Z,15
2022-10-23T07:13:01.082Z,15
2022-10-23T07:13:41.390Z,15
2022-10-23T07:14:22.054Z,15
2022-10-23T07:15:02.440Z,15
2022-10-23T07:21:07.625Z,20
2022-10-23T07:21:48.072Z,20
2022-10-23T07:22:28.574Z,25
2022-10-23T07:23:09.035Z,25
2022-10-23T07:23:49.779Z,25
2022-10-23T07:24:30.631Z,25
2022-10-23T07:25:10.789Z,30
2022-10-23T07:25:51.265Z,30
2022-10-23T07:26:31.747Z,30
2022-10-23T07:33:05.797Z,30
2022-10-23T07:33:46.382Z,30
2022-10-23T07:34:26.833Z,30
2022-10-23T07:39:10.752Z,35
2022-10-23T07:39:51.246Z,35
2022-10-23T07:40:31.722Z,35
2022-10-23T07:41:12.515Z,35
2022-10-23T07:41:52.645Z,35
2022-10-23T07:42:33.151Z,35
2022-10-23T07:43:13.680Z,35
2022-10-23T07:43:54.313Z,35
2022-10-23T07:44:34.849Z,35
2022-10-23T07:45:15.359Z,35
2022-10-23T07:50:39.507Z,40
2022-10-23T07:51:20.069Z,40
2022-10-23T07:52:00.938Z,40
2022-10-23T07:52:41.596Z,40
2022-10-23T07:55:26.161Z,40
2022-10-23T07:56:07.509Z,40
2022-10-23T07:56:47.920Z,40
2022-10-23T07:59:43.133Z,35
2022-10-23T08:01:04.134Z,35
2022-10-23T08:06:27.914Z,30
2022-10-23T08:07:08.381Z,30
2022-10-23T08:07:48.946Z,30
2022-10-23T08:08:29.475Z,30
2022-10-23T08:09:09.938Z,30
2022-10-23T08:09:50.460Z,30
2022-10-23T08:10:30.910Z,30
2022-10-23T08:11:11.409Z,30
2022-10-23T08:11:51.923Z,30
2022-10-23T08:12:32.398Z,30
2022-10-23T08:19:57.776Z,30
2022-10-23T08:20:38.256Z,30
2022-10-23T08:21:18.779Z,30
2022-10-23T08:21:59.222Z,30
2022-10-23T08:22:39.732Z,35
2022-10-23T08:23:20.166Z,30
2022-10-23T08:24:00.682Z,30
2022-10-23T08:24:41.100Z,30
2022-10-23T08:25:24.785Z,30
2022-10-23T08:26:02.157Z,30
2022-10-23T08:26:42.617Z,35
2022-10-23T08:34:07.858Z,40
2022-10-23T08:34:48.342Z,40
2022-10-23T08:35:28.819Z,40
2022-10-23T08:36:09.302Z,35
2022-10-23T08:36:49.778Z,35
2022-10-23T08:37:30.317Z,35
2022-10-23T08:38:10.721Z,35
2022-10-23T08:38:51.261Z,40
2022-10-23T08:40:12.152Z,40
2022-10-23T08:40:52.672Z,40
2022-10-23T08:48:17.946Z,40
2022-10-23T08:48:58.404Z,40
2022-10-23T08:51:38.494Z,40
2022-10-23T08:52:18.917Z,40
2022-10-23T08:52:59.529Z,40
2022-10-23T08:57:43.697Z,40
2022-10-23T08:58:23.773Z,40
2022-10-23T08:59:04.298Z,40
2022-10-23T08:59:44.854Z,40
2022-10-23T09:01:06.347Z,40
2022-10-23T09:01:46.925Z,40
2022-10-23T09:02:27.340Z,40
2022-10-23T09:03:07.759Z,40
2022-10-23T09:13:12.003Z,40
2022-10-23T09:13:53.158Z,40
2022-10-23T09:14:33.699Z,40
2022-10-23T09:18:36.820Z,35
2022-10-23T09:19:17.453Z,35
2022-10-23T09:19:57.893Z,30
2022-10-23T09:20:38.360Z,35
2022-10-23T09:21:18.839Z,35
2022-10-23T09:21:59.389Z,35
2022-10-23T09:22:39.873Z,35
2022-10-23T09:23:20.405Z,35
2022-10-23T09:24:00.884Z,35
2022-10-23T09:28:00.089Z,35
2022-10-23T09:28:39.428Z,40
2022-10-23T09:29:20.432Z,40
2022-10-23T09:30:00.932Z,40
2022-10-23T09:33:23.919Z,35
2022-10-23T09:34:06.417Z,35
2022-10-23T09:34:44.919Z,35
2022-10-23T09:35:25.444Z,35
2022-10-23T09:36:05.940Z,35
2022-10-23T09:36:46.410Z,35
2022-10-23T09:37:27.071Z,35
2022-10-23T09:38:07.652Z,35
2022-10-23T09:38:48.096Z,35
2022-10-23T09:45:33.620Z,30
2022-10-23T09:46:14.278Z,30
2022-10-23T09:46:54.914Z,30
2022-10-23T09:47:35.308Z,30
2022-10-23T09:48:15.909Z,30
2022-10-23T09:48:56.446Z,30
2022-10-23T09:49:36.955Z,30
2022-10-23T09:50:17.379Z,30
2022-10-23T09:50:57.922Z,30
2022-10-23T09:51:38.463Z,25
2022-10-23T09:57:03.703Z,25
2022-10-23T09:57:45.268Z,25
2022-10-23T09:58:25.461Z,25
2022-10-23T09:59:05.916Z,25
2022-10-23T09:59:46.421Z,25
2022-10-23T10:00:26.922Z,25
2022-10-23T10:01:07.555Z,25
2022-10-23T10:01:47.938Z,25
2022-10-23T10:08:33.735Z,25
2022-10-23T10:09:14.345Z,20
2022-10-23T10:09:54.849Z,20
2022-10-23T10:10:35.356Z,20
2022-10-23T10:11:16.036Z,20
2022-10-23T10:11:56.633Z,20
2022-10-23T10:12:37.062Z,20
2022-10-23T10:13:17.658Z,20
2022-10-23T10:13:58.139Z,20
2022-10-23T10:20:43.615Z,20
2022-10-23T10:21:24.388Z,20
2022-10-23T10:22:04.924Z,20
2022-10-23T10:22:45.471Z,20
2022-10-23T10:23:25.849Z,20
2022-10-23T10:24:06.505Z,20
2022-10-23T10:24:47.530Z,20
2022-10-23T10:25:28.068Z,20
2022-10-23T10:32:13.542Z,10
2022-10-23T10:32:54.035Z,10
2022-10-23T10:33:34.583Z,10
2022-10-23T10:34:15.100Z,10
2022-10-23T10:34:55.525Z,10
2022-10-23T10:35:36.605Z,10
2022-10-23T10:36:17.089Z,10
2022-10-23T10:36:57.524Z,10
2022-10-23T10:37:38.052Z,10
2022-10-23T10:43:43.591Z,10
2022-10-23T10:44:24.131Z,10
2022-10-23T10:45:04.760Z,10
2022-10-23T10:45:45.237Z,10
2022-10-23T10:46:25.754Z,10
2022-10-23T10:47:06.266Z,10
2022-10-23T10:47:46.861Z,10
2022-10-23T10:48:27.812Z,10
2022-10-23T10:49:08.497Z,10
2022-10-23T10:55:53.451Z,15
2022-10-23T10:56:34.002Z,15
2022-10-23T10:57:14.470Z,15
2022-10-23T10:57:55.867Z,15
2022-10-23T10:58:35.469Z,15
2022-10-23T10:59:15.979Z,15
2022-10-23T10:59:56.428Z,15
2022-10-23T11:00:37.076Z,15
2022-10-23T11:01:17.599Z,10
2022-10-23T11:01:58.062Z,10
2022-10-23T11:02:38.392Z,10
2022-10-23T11:04:44.078Z,10
2022-10-23T11:05:24.566Z,5
2022-10-23T11:06:05.076Z,5
2022-10-23T11:06:45.590Z,5
2022-10-23T11:07:26.054Z,5
2022-10-23T11:08:06.579Z,5
2022-10-23T11:08:56.051Z,5
2022-10-23T11:09:27.522Z,5
2022-10-23T11:10:08.064Z,5
2022-10-23T11:17:33.645Z,10
2022-10-23T11:18:14.118Z,10
2022-10-23T11:18:54.652Z,15
2022-10-23T11:22:33.857Z,15
2022-10-23T11:23:14.290Z,20
2022-10-23T11:23:54.730Z,20
2022-10-23T11:29:18.624Z,30
2022-10-23T11:29:59.245Z,30
2022-10-23T11:30:39.772Z,30
2022-10-23T11:31:20.320Z,30
2022-10-23T11:32:00.787Z,30
2022-10-23T11:32:41.227Z,30
2022-10-23T11:33:21.761Z,30
2022-10-23T11:34:02.303Z,30
2022-10-23T11:34:42.795Z,30
2022-10-23T11:42:08.699Z,40
2022-10-23T11:42:49.190Z,40
2022-10-23T11:43:29.711Z,40
2022-10-23T11:44:10.216Z,40
2022-10-23T11:44:50.708Z,40
2022-10-23T11:46:11.739Z,40
2022-10-23T11:46:52.237Z,40
2022-10-23T11:47:36.579Z,40
2022-10-23T11:48:13.237Z,40
2022-10-23T12:32:22.107Z,30
2022-10-23T12:33:02.384Z,30
2022-10-23T12:33:42.823Z,30
2022-10-23T12:38:26.290Z,30
2022-10-23T12:39:06.813Z,30
2022-10-23T12:39:47.245Z,25
2022-10-23T12:40:27.831Z,25
2022-10-23T12:41:08.327Z,25
2022-10-23T12:41:48.869Z,25
2022-10-23T12:42:29.339Z,25
2022-10-23T12:43:09.822Z,25
2022-10-23T12:43:50.338Z,25
2022-10-23T12:44:30.797Z,25
2022-10-23T12:49:16.622Z,25
2022-10-23T12:49:57.051Z,25
2022-10-23T12:50:37.600Z,25
2022-10-23T12:51:19.121Z,25
2022-10-23T12:51:59.570Z,25
2022-10-23T12:52:40.083Z,25
2022-10-23T12:53:20.551Z,20
2022-10-23T12:54:01.073Z,20
2022-10-23T13:00:46.611Z,20
2022-10-23T13:01:27.235Z,20
2022-10-23T13:02:07.810Z,20
2022-10-23T13:02:48.218Z,20
2022-10-23T13:03:28.644Z,20
2022-10-23T13:04:09.167Z,20
2022-10-23T13:04:49.611Z,20
2022-10-23T13:05:30.120Z,20
2022-10-23T13:06:11.411Z,20
2022-10-23T13:08:16.315Z,20
2022-10-23T13:08:57.038Z,20
2022-10-23T13:09:37.742Z,20
2022-10-23T13:10:19.544Z,20
2022-10-23T13:11:00.263Z,20
2022-10-23T13:16:26.584Z,20
2022-10-23T13:17:06.997Z,20
2022-10-23T13:19:59.003Z,20
2022-10-23T13:20:39.420Z,20
2022-10-23T13:21:19.924Z,20
2022-10-23T13:22:00.367Z,20
2022-10-23T13:22:41.090Z,20
2022-10-23T13:30:46.922Z,20
2022-10-23T13:31:27.401Z,20
2022-10-23T13:32:07.935Z,20
2022-10-23T13:32:48.499Z,20
2022-10-23T13:33:28.874Z,20
2022-10-23T13:34:09.344Z,20
2022-10-23T13:34:53.800Z,20
2022-10-23T13:35:30.343Z,20
2022-10-23T13:36:10.759Z,20
2022-10-23T13:36:53.508Z,20
2022-10-23T13:37:31.795Z,20
2022-10-23T13:44:57.066Z,20
2022-10-23T13:45:37.555Z,20
2022-10-23T13:46:18.038Z,20
2022-10-23T13:46:58.479Z,20
2022-10-23T13:47:38.997Z,20
2022-10-23T13:48:19.474Z,15
2022-10-23T13:48:59.940Z,15
2022-10-23T13:49:40.427Z,15
2022-10-23T13:50:20.890Z,15
2022-10-23T13:51:01.400Z,15
2022-10-23T13:55:46.927Z,15
2022-10-23T13:56:27.430Z,15
2022-10-23T13:57:07.888Z,15
2022-10-23T13:57:48.350Z,15
2022-10-23T13:58:28.854Z,15
2022-10-23T13:59:09.332Z,15
2022-10-23T13:59:49.806Z,15
2022-10-23T14:00:30.345Z,15
2022-10-23T14:01:10.963Z,15
2022-10-23T14:01:51.409Z,15
2022-10-23T14:09:16.883Z,15
2022-10-23T14:09:57.374Z,15
2022-10-23T14:10:37.851Z,15
2022-10-23T14:11:18.317Z,15
2022-10-23T14:11:58.767Z,10
2022-10-23T14:12:39.327Z,10
2022-10-23T14:13:19.773Z,10
2022-10-23T14:14:00.211Z,10
2022-10-23T14:14:40.760Z,10
2022-10-23T14:15:21.268Z,10
2022-10-23T14:16:01.785Z,10
2022-10-23T14:22:07.113Z,10
2022-10-23T14:22:47.638Z,10
2022-10-23T14:23:27.973Z,10
2022-10-23T14:24:08.489Z,10
2022-10-23T14:24:48.932Z,10
2022-10-23T14:25:29.467Z,10
2022-10-23T14:26:09.966Z,10
2022-10-23T14:26:50.368Z,10
2022-10-23T14:27:30.809Z,10
2022-10-23T14:28:11.322Z,10
2022-10-23T14:28:51.800Z,5
2022-10-23T14:37:07.877Z,5
2022-10-23T14:37:38.160Z,5
2022-10-23T14:38:18.635Z,5
2022-10-23T14:38:59.159Z,5
2022-10-23T14:39:39.595Z,5
2022-10-23T14:40:20.062Z,5
2022-10-23T14:41:00.561Z,5
2022-10-23T14:41:41.002Z,5
2022-10-23T14:42:21.452Z,5
2022-10-23T14:49:47.200Z,5
2022-10-23T14:50:27.691Z,5
2022-10-23T14:51:08.216Z,5
2022-10-23T14:51:48.645Z,5
2022-10-23T14:52:29.160Z,5
2022-10-23T14:53:09.674Z,5
2022-10-23T14:53:50.848Z,5
2022-10-23T14:54:30.629Z,5
2022-10-23T14:55:11.031Z,5
2022-10-23T14:55:51.492Z,5
2022-10-23T15:03:17.257Z,0
2022-10-23T15:03:57.754Z,0
2022-10-23T15:04:38.407Z,0
2022-10-23T15:05:18.966Z,0
2022-10-23T15:05:59.474Z,0
2022-10-23T15:06:39.939Z,0
2022-10-23T15:07:20.424Z,0
2022-10-23T15:08:00.921Z,0
2022-10-23T15:08:41.694Z,0
2022-10-23T15:13:27.120Z,0
2022-10-23T15:14:07.693Z,0
2022-10-23T15:14:49.371Z,0
2022-10-23T15:15:30.101Z,0
2022-10-23T15:16:11.227Z,0
2022-10-23T15:16:52.052Z,0
2022-10-23T15:21:36.970Z,0
2022-10-23T15:22:17.538Z,0
2022-10-23T15:22:58.356Z,0
2022-10-23T15:23:38.898Z,0
2022-10-23T15:24:20.846Z,0
2022-10-23T15:25:01.386Z,0
2022-10-23T15:31:47.249Z,0
2022-10-23T15:32:27.793Z,0
2022-10-23T15:33:08.322Z,0
2022-10-23T15:33:48.845Z,0
2022-10-23T15:34:29.443Z,0
2022-10-23T15:35:09.812Z,0
2022-10-23T15:35:51.028Z,0
2022-10-23T15:36:31.555Z,0
2022-10-23T15:43:17.439Z,0
2022-10-23T15:43:59.323Z,0
2022-10-23T15:44:41.087Z,0
2022-10-23T15:45:21.005Z,0
2022-10-23T15:48:46.995Z,0
2022-10-23T15:49:28.665Z,0
2022-10-23T15:50:09.308Z,0
2022-10-23T15:50:49.967Z,0
2022-10-23T15:51:30.436Z,0
2022-10-23T15:52:51.391Z,0
2022-10-23T16:00:20.314Z,0
2022-10-23T16:01:38.261Z,0
2022-10-23T16:02:18.832Z,0
2022-10-23T16:02:59.152Z,0
2022-10-23T16:03:39.769Z,0
2022-10-23T16:04:20.296Z,0
2022-10-23T16:05:00.800Z,0
2022-10-23T16:05:41.346Z,0
2022-10-23T16:06:22.039Z,0
2022-10-23T16:11:46.960Z,0
2022-10-23T16:12:27.910Z,0
2022-10-23T16:13:08.460Z,0
2022-10-23T16:13:48.911Z,0
2022-10-23T16:14:29.611Z,0
2022-10-23T16:15:11.048Z,0
2022-10-23T16:15:51.431Z,0
2022-10-23T16:22:39.155Z,0
2022-10-23T16:23:17.626Z,0
2022-10-23T16:23:58.729Z,0
2022-10-23T16:24:39.436Z,0
2022-10-23T16:25:20.465Z,0
2022-10-23T16:26:00.884Z,0
2022-10-23T16:31:26.896Z,0
2022-10-23T16:32:07.446Z,0
2022-10-23T16:32:47.950Z,0
2022-10-23T16:33:28.466Z,0
2022-10-23T16:34:08.941Z,0
2022-10-23T16:34:49.746Z,0
2022-10-23T16:35:30.254Z,0
2022-10-23T16:36:10.804Z,0
2022-10-23T16:36:51.462Z,0
2022-10-23T16:37:31.838Z,0
2022-10-23T16:44:57.136Z,0
2022-10-23T16:45:37.873Z,0
2022-10-23T16:46:18.231Z,0
2022-10-23T16:47:39.238Z,0
2022-10-23T16:48:19.706Z,0
2022-10-23T16:49:00.265Z,0
2022-10-23T16:49:40.681Z,0
2022-10-23T16:50:21.243Z,0
2022-10-23T16:51:01.643Z,0
2022-10-23T16:58:27.427Z,0
2022-10-23T16:59:07.715Z,0
2022-10-23T16:59:48.138Z,0
2022-10-23T17:00:28.741Z,0
2022-10-23T17:01:09.315Z,0
2022-10-23T17:06:01.279Z,0
2022-10-23T17:06:38.172Z,0
2022-10-23T17:07:18.697Z,0
2022-10-23T17:07:59.248Z,0
2022-10-23T17:08:40.299Z,0
2022-10-23T17:09:21.003Z,0
2022-10-23T17:10:01.411Z,0
2022-10-23T17:17:27.371Z,0
2022-10-23T17:18:07.924Z,0
2022-10-23T17:18:48.616Z,0
2022-10-23T17:19:45.801Z,0
2022-10-23T17:20:09.560Z,0
2022-10-23T17:20:50.071Z,0
2022-10-23T17:21:30.689Z,0
2022-10-23T17:22:11.216Z,0
2022-10-23T17:22:51.690Z,0
2022-10-23T17:29:36.983Z,0
2022-10-23T17:30:17.503Z,0
2022-10-23T17:30:58.267Z,0
2022-10-23T17:31:38.930Z,0
2022-10-23T17:32:19.181Z,0
2022-10-23T17:33:01.911Z,0
2022-10-23T17:33:41.827Z,0
2022-10-23T17:36:27.312Z,0
2022-10-23T17:37:08.129Z,0
2022-10-23T17:37:48.690Z,0
2022-10-23T17:38:29.167Z,0
2022-10-23T17:39:09.791Z,0
2022-10-23T17:39:50.195Z,0
2022-10-23T17:40:30.756Z,0
2022-10-23T17:41:11.349Z,0
2022-10-23T17:41:51.779Z,0
2022-10-23T17:47:17.186Z,0
2022-10-23T17:47:57.924Z,0
2022-10-23T17:48:38.583Z,0
2022-10-23T17:49:19.142Z,0
2022-10-23T17:49:59.534Z,0
2022-10-23T17:50:40.157Z,0
2022-10-23T17:51:20.688Z,0
2022-10-23T17:52:01.361Z,0
2022-10-23T17:52:42.043Z,0
2022-10-23T18:34:40.342Z,0
2022-10-23T18:35:20.695Z,0
2022-10-23T18:36:01.342Z,0
2022-10-23T18:40:44.996Z,0
2022-10-23T18:41:25.469Z,0
2022-10-23T18:42:05.966Z,0
2022-10-23T18:42:46.833Z,0
2022-10-23T18:43:42.376Z,0
2022-10-23T18:44:07.632Z,0
2022-10-23T18:44:48.094Z,0
2022-10-23T18:45:28.655Z,0
2022-10-23T18:46:09.087Z,0
2022-10-23T18:46:49.573Z,0
2022-10-23T18:54:15.056Z,0
2022-10-23T18:54:55.516Z,0
2022-10-23T18:55:36.029Z,0
2022-10-23T18:56:16.570Z,0
2022-10-23T18:59:57.928Z,0
2022-10-23T19:00:38.047Z,0
2022-10-23T19:01:18.676Z,0
2022-10-23T19:01:59.123Z,0
2022-10-23T19:04:41.259Z,0
2022-10-23T19:05:21.742Z,0
2022-10-23T19:06:02.203Z,0
2022-10-23T19:06:42.916Z,0
2022-10-23T19:07:23.756Z,0
2022-10-23T19:08:04.675Z,0
2022-10-23T19:08:45.168Z,0
2022-10-23T19:09:25.755Z,0
2022-10-23T19:15:31.303Z,0
2022-10-23T19:16:11.736Z,0
2022-10-23T19:16:52.305Z,0
2022-10-23T19:17:32.954Z,0
2022-10-23T19:23:41.321Z,0
2022-10-23T19:24:21.822Z,0
2022-10-23T19:25:02.308Z,0
2022-10-23T19:25:42.760Z,0
2022-10-23T19:26:23.324Z,0
2022-10-23T19:27:03.803Z,0
2022-10-23T19:27:44.368Z,0
2022-10-23T19:28:24.829Z,0
2022-10-23T19:29:05.293Z,0
2022-10-23T19:29:45.764Z,0
2022-10-23T19:39:16.080Z,0
2022-10-23T19:39:56.755Z,0
2022-10-23T19:40:37.362Z,0
2022-10-23T19:41:17.732Z,0
2022-10-23T19:41:58.232Z,0
2022-10-23T19:42:38.724Z,0
2022-10-23T19:43:19.287Z,0
2022-10-23T19:44:00.024Z,0
2022-10-23T19:44:40.339Z,0
2022-10-23T19:45:20.863Z,0
2022-10-23T19:52:38.842Z,0
2022-10-23T19:53:19.167Z,0
2022-10-23T19:53:59.685Z,0
2022-10-23T19:58:44.010Z,0
2022-10-23T19:59:23.684Z,0
2022-10-23T20:00:04.171Z,0
2022-10-23T20:00:44.649Z,0
2022-10-23T20:01:25.286Z,0
2022-10-23T20:02:06.930Z,0
2022-10-23T20:02:48.149Z,0
2022-10-23T20:03:27.752Z,0
2022-10-23T20:04:08.220Z,0
2022-10-23T20:11:33.995Z,0
2022-10-23T20:12:14.534Z,0
2022-10-23T20:12:56.991Z,0
2022-10-23T20:13:35.457Z,0
2022-10-23T20:14:15.984Z,0
2022-10-23T20:14:56.545Z,0
2022-10-23T20:15:36.913Z,0
2022-10-23T20:16:17.382Z,0
2022-10-23T20:16:57.918Z,0
2022-10-23T20:25:03.702Z,0
2022-10-23T20:25:44.183Z,0
2022-10-23T20:26:24.681Z,0
2022-10-23T20:27:05.091Z,0
2022-10-23T20:27:45.591Z,0
2022-10-23T20:28:26.037Z,0
2022-10-23T20:29:06.698Z,0
2022-10-23T20:29:47.159Z,0
2022-10-23T20:30:27.596Z,0
2022-10-23T20:31:08.097Z,0
2022-10-23T20:38:33.484Z,0
2022-10-23T20:39:13.949Z,0
2022-10-23T20:39:54.428Z,0
2022-10-23T20:40:34.932Z,0
2022-10-23T20:41:15.488Z,0
2022-10-23T20:41:55.907Z,0
2022-10-23T20:42:36.410Z,0
2022-10-23T20:43:16.874Z,0
2022-10-23T20:43:57.364Z,0
2022-10-23T20:44:37.850Z,0
2022-10-23T20:45:18.321Z,0
2022-10-23T20:52:43.731Z,0
2022-10-23T20:53:24.224Z,0
2022-10-23T20:54:46.243Z,0
2022-10-23T20:55:26.738Z,0
2022-10-23T20:56:07.217Z,0
2022-10-23T20:56:47.831Z,0
2022-10-23T20:57:28.211Z,0
2022-10-23T21:04:53.619Z,0
2022-10-23T21:05:34.085Z,0
2022-10-23T21:06:14.570Z,0
2022-10-23T21:07:09.276Z,0
2022-10-23T21:07:35.566Z,0
2022-10-23T21:08:16.075Z,0
2022-10-23T21:08:56.621Z,0
2022-10-23T21:09:37.049Z,0
2022-10-23T21:10:17.529Z,0
2022-10-23T21:10:57.984Z,0
2022-10-23T21:18:33.931Z,0
2022-10-23T21:19:04.575Z,0
2022-10-23T21:19:45.022Z,0
2022-10-23T21:20:25.514Z,0
2022-10-23T21:21:05.969Z,0
2022-10-23T21:21:46.438Z,0
2022-10-23T21:22:26.909Z,0
2022-10-23T21:23:07.380Z,0
2022-10-23T21:23:47.853Z,0
2022-10-23T21:31:13.347Z,0
2022-10-23T21:31:53.929Z,0
2022-10-23T21:32:34.436Z,0
2022-10-23T21:33:15.192Z,0
2022-10-23T21:33:55.487Z,0
2022-10-23T21:34:35.916Z,0
2022-10-23T21:35:16.446Z,0
2022-10-23T21:35:58.604Z,0
2022-10-23T21:36:48.439Z,0
2022-10-23T21:37:17.966Z,0
2022-10-23T21:37:58.381Z,0
2022-10-23T21:45:23.769Z,0
2022-10-23T21:46:04.272Z,0
2022-10-23T21:46:44.812Z,0
2022-10-23T21:47:25.281Z,0
2022-10-23T21:48:05.808Z,0
2022-10-23T21:48:46.271Z,0
2022-10-23T21:49:26.745Z,0
2022-10-23T21:50:07.275Z,0
2022-10-23T21:51:28.276Z,0
2022-10-23T21:58:53.750Z,0
2022-10-23T21:59:35.824Z,0
2022-10-23T22:00:14.757Z,0
2022-10-23T22:00:55.244Z,0
2022-10-23T22:01:35.788Z,0
2022-10-23T22:02:16.309Z,0
2022-10-23T22:02:57.552Z,0
2022-10-23T22:03:37.999Z,0
2022-10-23T22:10:23.681Z,0
2022-10-23T22:11:04.172Z,0
2022-10-23T22:11:44.693Z,0
2022-10-23T22:12:25.131Z,0
2022-10-23T22:13:05.688Z,0
2022-10-23T22:13:46.179Z,0
2022-10-23T22:14:26.688Z,0
2022-10-23T22:15:47.673Z,0
2022-10-23T22:16:28.118Z,0
2022-10-23T22:23:13.783Z,0
2022-10-23T22:23:54.330Z,0
2022-10-23T22:24:34.772Z,0
2022-10-23T22:25:15.216Z,0
2022-10-23T22:25:55.734Z,0
2022-10-23T22:26:36.291Z,0
2022-10-23T22:27:16.744Z,0
2022-10-23T22:27:57.265Z,0
2022-10-23T22:28:37.700Z,0
2022-10-23T22:36:43.685Z,0
2022-10-23T22:37:25.358Z,0
2022-10-23T22:38:05.692Z,0
2022-10-23T22:38:46.367Z,0
2022-10-23T22:39:27.577Z,0